Accueil
METAR-TAF:

METAR-TAF

Aéroports :

Aéroport international de Lombok

Mataram, Indonésie

latitude: 08-45-29S, longitude: 116-16-35E, altitude: 97 m

Observation

Le bulletin a été fait il y a 40 minutes, à 02:30 UTC
Vent 10 kt de sud-est, variant entre est et sud/sud-est
Température 29°C
Humidité 66%
Pression 1013 hPa
Visibilité: 9000 m
Nuages épars à une hauteur de 1600 ft

METAR: WADL 220230Z 14010KT 090V160 9000 SCT016 29/22 Q1013 NOSIG

Heure: 10:10 (03:10 UTC)

Prévision

Le bulletin a été fait il y a 4 heures et 10 minutes, à 23:00 UTC
Prévision valable du 22 à 00 UTC au 22 à 24 UTC
Vent 10 kt de sud-est
Visibilité: 9000 m
Nuages épars à une hauteur de 1600 ft

TAF: WADL 212300Z 2200/2224 14010KT 9000 SCT016

Observations et prévisions météorologiques de plus de 4000 aéroports (messages METAR et TAF).

Les stations disponibles sont représentées par des disques jaunes et rouges sur la carte.

Passer la souris dessus pour voir le nom de la station.

Cliquer dessus pour voir les observations et prévisions météorologiques.

Pour changer de carte: cliquez sur les boutons verts avec une croix noire pour zoomer, sur le bouton vert avec un tiret pour effectuer un zoom arrière, ou sur les flèches vertes pour les cartes adjacentes.


METAR-TAF: